createdAt,value
2017-06-14T00:00:27.935Z,99.99
2017-06-14T00:01:27.898Z,99.99
2017-06-14T00:02:27.924Z,99.99
2017-06-14T00:03:27.940Z,99.99
2017-06-14T00:04:27.944Z,99.99
2017-06-14T00:05:27.959Z,99.99
2017-06-14T00:06:27.931Z,99.99
2017-06-14T00:07:27.934Z,99.99
2017-06-14T00:08:27.927Z,99.99
2017-06-14T00:09:27.935Z,99.99
2017-06-14T00:10:27.923Z,99.99
2017-06-14T00:11:27.850Z,99.99
2017-06-14T00:12:27.945Z,99.99
2017-06-14T00:13:27.919Z,99.99
2017-06-14T00:14:27.923Z,99.99
2017-06-14T00:15:27.921Z,99.99
2017-06-14T00:16:27.922Z,99.99
2017-06-14T00:17:27.924Z,99.99
2017-06-14T00:18:27.923Z,99.99
2017-06-14T00:19:27.925Z,99.99
2017-06-14T00:20:27.926Z,99.99
2017-06-14T00:21:27.926Z,99.99
2017-06-14T00:22:27.926Z,99.99
2017-06-14T00:23:27.997Z,99.99
2017-06-14T00:24:27.944Z,99.99
2017-06-14T00:25:27.951Z,99.99
2017-06-14T00:26:27.855Z,99.99
2017-06-14T00:27:27.952Z,99.99
2017-06-14T00:28:27.865Z,99.99
2017-06-14T00:29:27.862Z,99.99
2017-06-14T00:30:27.863Z,99.99
2017-06-14T00:31:27.954Z,99.99
2017-06-14T00:32:27.955Z,99.99
2017-06-14T00:33:27.870Z,99.99
2017-06-14T00:34:27.863Z,99.99
2017-06-14T00:35:27.855Z,99.99
2017-06-14T00:36:27.955Z,99.99
2017-06-14T00:37:27.866Z,99.99
2017-06-14T00:38:27.874Z,99.99
2017-06-14T00:39:27.951Z,99.99
2017-06-14T00:40:27.953Z,99.99
2017-06-14T00:41:27.867Z,99.99
2017-06-14T00:42:27.963Z,99.99
2017-06-14T00:43:27.952Z,99.99
2017-06-14T00:44:27.942Z,99.99
2017-06-14T00:45:28.049Z,99.99
2017-06-14T00:46:27.940Z,99.99
2017-06-14T00:47:27.951Z,99.99
2017-06-14T00:48:27.941Z,99.99
2017-06-14T00:49:27.942Z,99.99
2017-06-14T00:50:27.943Z,99.99
2017-06-14T00:51:27.942Z,99.99
2017-06-14T00:52:27.945Z,99.99
2017-06-14T00:53:27.942Z,99.99
2017-06-14T00:54:27.974Z,99.99
2017-06-14T00:55:27.899Z,99.99
2017-06-14T00:56:27.958Z,99.99
2017-06-14T00:57:27.969Z,99.99
2017-06-14T00:58:27.960Z,99.99
2017-06-14T00:59:27.965Z,99.99
2017-06-14T01:00:27.963Z,99.99
2017-06-14T01:01:27.878Z,99.99
2017-06-14T01:02:27.971Z,99.99
2017-06-14T01:03:27.969Z,99.99
2017-06-14T01:04:27.949Z,99.99
2017-06-14T01:05:27.950Z,99.99
2017-06-14T01:06:27.951Z,99.99
2017-06-14T01:07:27.951Z,99.99
2017-06-14T01:08:27.952Z,99.99
2017-06-14T01:09:27.952Z,99.99
2017-06-14T01:10:27.951Z,99.99
2017-06-14T01:11:27.955Z,99.99
2017-06-14T01:12:27.953Z,99.99
2017-06-14T01:13:27.951Z,99.99
2017-06-14T01:14:27.881Z,99.99
2017-06-14T01:15:27.973Z,99.99
2017-06-14T01:16:27.940Z,99.99
2017-06-14T01:17:27.969Z,99.99
2017-06-14T01:18:27.972Z,99.99
2017-06-14T01:19:27.890Z,99.99
2017-06-14T01:20:27.895Z,99.99
2017-06-14T01:21:27.973Z,99.99
2017-06-14T01:22:27.988Z,99.99
2017-06-14T01:23:27.963Z,99.99
2017-06-14T01:24:27.978Z,99.99
2017-06-14T01:25:27.893Z,99.99
2017-06-14T01:26:27.977Z,99.99
2017-06-14T01:27:27.986Z,99.99
2017-06-14T01:28:27.942Z,99.99
2017-06-14T01:29:27.986Z,99.99
2017-06-14T01:30:27.972Z,99.99
2017-06-14T01:31:27.901Z,99.99
2017-06-14T01:32:27.984Z,99.99
2017-06-14T01:33:27.944Z,99.99
2017-06-14T01:34:27.885Z,99.99
2017-06-14T01:35:27.891Z,99.99
2017-06-14T01:36:27.890Z,99.99
2017-06-14T01:37:27.931Z,99.99
2017-06-14T01:38:27.892Z,99.99
2017-06-14T01:39:27.893Z,99.99
2017-06-14T01:40:27.892Z,99.99
2017-06-14T01:41:27.892Z,99.99
2017-06-14T01:42:27.897Z,99.99
2017-06-14T01:43:27.891Z,99.99
2017-06-14T01:44:27.987Z,99.99
2017-06-14T01:45:27.989Z,99.99
2017-06-14T01:46:28.000Z,99.99
2017-06-14T01:47:27.995Z,99.99
2017-06-14T01:48:27.986Z,99.99
2017-06-14T01:49:27.987Z,99.99
2017-06-14T01:50:27.980Z,99.99
2017-06-14T01:51:27.985Z,99.99
2017-06-14T01:52:27.984Z,99.99
2017-06-14T01:53:27.977Z,99.99
2017-06-14T01:54:27.985Z,99.99
2017-06-14T01:55:27.981Z,99.99
2017-06-14T01:56:27.910Z,99.99
2017-06-14T01:57:27.998Z,99.99
2017-06-14T01:58:27.910Z,99.99
2017-06-14T01:59:27.983Z,99.99
2017-06-14T02:00:28.001Z,99.99
2017-06-14T02:01:27.957Z,99.99
2017-06-14T02:02:27.908Z,99.99
2017-06-14T02:03:27.910Z,99.99
2017-06-14T02:04:27.898Z,99.99
2017-06-14T02:05:27.903Z,99.99
2017-06-14T02:06:27.905Z,99.99
2017-06-14T02:07:27.904Z,99.99
2017-06-14T02:08:27.948Z,99.99
2017-06-14T02:09:27.955Z,99.99
2017-06-14T02:10:27.950Z,99.99
2017-06-14T02:11:27.934Z,99.99
2017-06-14T02:12:27.939Z,99.99
2017-06-14T02:13:27.909Z,99.99
2017-06-14T02:14:27.998Z,99.99
2017-06-14T02:15:28.005Z,99.99
2017-06-14T02:16:27.967Z,99.99
2017-06-14T02:17:28.000Z,99.99
2017-06-14T02:18:27.973Z,99.99
2017-06-14T02:19:27.991Z,99.99
2017-06-14T02:20:27.975Z,99.99
2017-06-14T02:21:27.995Z,99.99
2017-06-14T02:22:28.017Z,99.99
2017-06-14T02:23:28.016Z,99.99
2017-06-14T02:24:28.012Z,99.99
2017-06-14T02:25:28.004Z,99.99
2017-06-14T02:26:27.925Z,99.99
2017-06-14T02:27:28.005Z,99.99
2017-06-14T02:28:27.994Z,99.99
2017-06-14T02:29:28.020Z,99.99
2017-06-14T02:30:27.940Z,99.99
2017-06-14T02:31:27.999Z,99.99
2017-06-14T02:32:27.981Z,99.99
2017-06-14T02:33:27.993Z,99.99
2017-06-14T02:34:28.002Z,99.99
2017-06-14T02:35:28.085Z,99.99
2017-06-14T02:36:28.000Z,99.99
2017-06-14T02:37:27.998Z,99.99
2017-06-14T02:38:27.974Z,99.99
2017-06-14T02:39:28.003Z,99.99
2017-06-14T02:40:27.996Z,99.99
2017-06-14T02:41:27.999Z,99.99
2017-06-14T02:42:28.000Z,99.99
2017-06-14T02:43:28.005Z,99.99
2017-06-14T02:44:27.940Z,99.99
2017-06-14T02:45:28.019Z,99.99
2017-06-14T02:46:28.020Z,99.99
2017-06-14T02:47:28.028Z,99.99
2017-06-14T02:48:28.032Z,99.99
2017-06-14T02:49:28.020Z,99.99
2017-06-14T02:50:27.942Z,99.99
2017-06-14T02:51:27.944Z,99.99
2017-06-14T02:52:27.939Z,99.99
2017-06-14T02:53:27.947Z,99.99
2017-06-14T02:54:28.009Z,99.99
2017-06-14T02:55:28.009Z,99.99
2017-06-14T02:56:28.000Z,99.99
2017-06-14T02:57:28.010Z,99.99
2017-06-14T02:58:28.011Z,99.99
2017-06-14T02:59:28.025Z,99.99
2017-06-14T03:00:28.025Z,99.99
2017-06-14T03:01:28.014Z,99.99
2017-06-14T03:02:28.025Z,99.99
2017-06-14T03:03:28.024Z,99.99
2017-06-14T03:04:28.015Z,99.99
2017-06-14T03:05:28.015Z,99.99
2017-06-14T03:06:28.010Z,99.99
2017-06-14T03:07:28.015Z,99.99
2017-06-14T03:08:28.014Z,99.99
2017-06-14T03:09:27.930Z,99.99
2017-06-14T03:10:28.049Z,99.99
2017-06-14T03:11:28.032Z,99.99
2017-06-14T03:12:28.018Z,99.99
2017-06-14T03:13:28.020Z,99.99
2017-06-14T03:14:28.024Z,99.99
2017-06-14T03:15:28.042Z,99.99
2017-06-14T03:16:28.040Z,99.99
2017-06-14T03:17:28.015Z,99.99
2017-06-14T03:18:27.953Z,99.99
2017-06-14T03:19:28.100Z,99.99
2017-06-14T03:20:28.097Z,99.99
2017-06-14T03:21:28.036Z,99.99
2017-06-14T03:22:27.953Z,99.99
2017-06-14T03:23:28.039Z,99.99
2017-06-14T03:24:27.997Z,99.99
2017-06-14T03:25:27.955Z,99.99
2017-06-14T03:26:28.017Z,99.99
2017-06-14T03:27:28.040Z,99.99
2017-06-14T03:28:28.047Z,99.99
2017-06-14T03:29:27.958Z,99.99
2017-06-14T03:30:28.044Z,99.99
2017-06-14T03:31:27.999Z,99.99
2017-06-14T03:32:28.045Z,99.99
2017-06-14T03:33:27.964Z,99.99
2017-06-14T03:34:27.960Z,99.99
2017-06-14T03:35:27.962Z,99.99
2017-06-14T03:36:28.048Z,99.99
2017-06-14T03:37:28.007Z,99.99
2017-06-14T03:38:28.027Z,99.99
2017-06-14T03:39:27.991Z,99.99
2017-06-14T03:40:28.050Z,99.99
2017-06-14T03:41:27.960Z,99.99
2017-06-14T03:42:27.957Z,99.99
2017-06-14T03:43:27.962Z,99.99
2017-06-14T03:44:28.053Z,99.99
2017-06-14T03:45:27.967Z,99.99
2017-06-14T03:46:27.962Z,99.99
2017-06-14T03:47:28.014Z,99.99
2017-06-14T03:48:27.966Z,99.99
2017-06-14T03:49:27.963Z,99.99
2017-06-14T03:50:28.019Z,99.99
2017-06-14T03:51:28.070Z,99.99
2017-06-14T03:52:28.057Z,99.99
2017-06-14T03:53:28.035Z,99.99
2017-06-14T03:54:28.058Z,99.99
2017-06-14T03:55:28.053Z,99.99
2017-06-14T03:56:28.071Z,99.99
2017-06-14T03:57:28.063Z,99.99
2017-06-14T03:58:27.972Z,99.99
2017-06-14T03:59:27.974Z,99.99
2017-06-14T04:00:28.059Z,99.99
2017-06-14T04:01:27.979Z,99.99
2017-06-14T04:02:28.055Z,99.99
2017-06-14T04:03:28.071Z,99.99
2017-06-14T04:04:28.066Z,99.99
2017-06-14T04:05:28.022Z,99.99
2017-06-14T04:06:28.068Z,99.99
2017-06-14T04:07:28.063Z,99.99
2017-06-14T04:08:28.061Z,99.99
2017-06-14T04:09:27.977Z,99.99
2017-06-14T04:10:28.066Z,99.99
2017-06-14T04:11:27.976Z,99.99
2017-06-14T04:12:27.981Z,99.99
2017-06-14T04:13:28.069Z,99.99
2017-06-14T04:14:28.071Z,99.99
2017-06-14T04:15:28.050Z,99.99
2017-06-14T04:16:28.061Z,99.99
2017-06-14T04:17:28.053Z,99.99
2017-06-14T04:18:28.054Z,99.99
2017-06-14T04:19:28.069Z,99.99
2017-06-14T04:20:28.051Z,99.99
2017-06-14T04:21:28.051Z,99.99
2017-06-14T04:22:28.058Z,99.99
2017-06-14T04:23:28.056Z,99.99
2017-06-14T04:24:28.070Z,99.99
2017-06-14T04:25:27.968Z,99.99
2017-06-14T04:26:27.964Z,99.99
2017-06-14T04:27:28.061Z,99.99
2017-06-14T04:28:28.063Z,99.99
2017-06-14T04:29:28.020Z,99.99
2017-06-14T04:30:28.082Z,99.99
2017-06-14T04:31:27.981Z,99.99
2017-06-14T04:32:28.086Z,99.99
2017-06-14T04:33:28.032Z,99.99
2017-06-14T04:34:27.971Z,99.99
2017-06-14T04:35:27.993Z,99.99
2017-06-14T04:36:27.991Z,99.99
2017-06-14T04:37:28.080Z,99.99
2017-06-14T04:38:28.072Z,99.99
2017-06-14T04:39:27.990Z,99.99
2017-06-14T04:40:28.000Z,99.99
2017-06-14T04:41:27.991Z,99.99
2017-06-14T04:42:27.996Z,99.99
2017-06-14T04:43:28.082Z,99.99
2017-06-14T04:44:28.084Z,99.99
2017-06-14T04:45:28.091Z,99.99
2017-06-14T04:46:28.090Z,99.99
2017-06-14T04:47:28.084Z,99.99
2017-06-14T04:48:28.087Z,99.99
2017-06-14T04:49:28.094Z,99.99
2017-06-14T04:50:27.999Z,99.99
2017-06-14T04:51:28.093Z,99.99
2017-06-14T04:52:28.088Z,99.99
2017-06-14T04:53:28.080Z,99.99
2017-06-14T04:54:28.009Z,99.99
2017-06-14T04:55:28.066Z,99.99
2017-06-14T04:56:28.071Z,99.99
2017-06-14T04:57:28.071Z,99.99
2017-06-14T04:58:28.068Z,99.99
2017-06-14T04:59:28.071Z,99.99
2017-06-14T05:00:28.070Z,99.99
2017-06-14T05:01:28.074Z,99.99
2017-06-14T05:02:28.071Z,99.99
2017-06-14T05:03:28.072Z,99.99
2017-06-14T05:04:28.075Z,99.99
2017-06-14T05:05:28.073Z,99.99
2017-06-14T05:06:28.075Z,99.99
2017-06-14T05:07:28.073Z,99.99
2017-06-14T05:08:28.076Z,99.99
2017-06-14T05:09:28.181Z,99.99
2017-06-14T05:10:28.078Z,99.99
2017-06-14T05:11:28.074Z,99.99
2017-06-14T05:12:28.081Z,99.99
2017-06-14T05:13:28.199Z,99.99
2017-06-14T05:14:28.200Z,99.99
2017-06-14T05:15:28.022Z,99.99
2017-06-14T05:16:28.206Z,99.99
2017-06-14T05:17:28.064Z,99.99
2017-06-14T05:18:28.102Z,99.99
2017-06-14T05:19:28.104Z,99.99
2017-06-14T05:20:28.110Z,99.99
2017-06-14T05:21:28.023Z,99.99
2017-06-14T05:22:28.111Z,99.99
2017-06-14T05:23:28.112Z,99.99
2017-06-14T05:24:28.105Z,99.99
2017-06-14T05:25:28.088Z,99.99
2017-06-14T05:26:28.003Z,99.99
2017-06-14T05:27:28.087Z,99.99
2017-06-14T05:28:28.088Z,99.99
2017-06-14T05:29:28.091Z,99.99
2017-06-14T05:30:28.089Z,99.99
2017-06-14T05:31:28.089Z,99.99
2017-06-14T05:32:28.094Z,99.99
2017-06-14T05:33:28.092Z,99.99
2017-06-14T05:34:28.174Z,99.99
2017-06-14T05:35:28.092Z,99.99
2017-06-14T05:36:28.091Z,99.99
2017-06-14T05:37:28.090Z,99.99
2017-06-14T05:38:28.007Z,99.99
2017-06-14T05:39:28.095Z,99.99
2017-06-14T05:40:28.093Z,99.99
2017-06-14T05:41:28.090Z,99.99
2017-06-14T05:42:28.098Z,99.99
2017-06-14T05:43:28.093Z,99.99
2017-06-14T05:44:28.098Z,99.99
2017-06-14T05:45:28.118Z,99.99
2017-06-14T05:46:28.124Z,99.99
2017-06-14T05:47:28.099Z,98.64
2017-06-14T05:48:28.077Z,98.26
2017-06-14T05:49:28.123Z,96.45
2017-06-14T05:50:28.031Z,96.13
2017-06-14T05:51:28.031Z,94.42
2017-06-14T05:52:28.101Z,94.93
2017-06-14T05:53:28.032Z,94.48
2017-06-14T05:54:28.132Z,93.10
2017-06-14T05:55:28.120Z,91.01
2017-06-14T05:56:28.118Z,90.80
2017-06-14T05:57:28.101Z,90.98
2017-06-14T05:58:28.085Z,91.44
2017-06-14T05:59:28.122Z,90.34
2017-06-14T06:00:28.125Z,87.77
2017-06-14T06:01:28.128Z,87.69
2017-06-14T06:02:28.126Z,87.93
2017-06-14T06:03:28.039Z,88.50
2017-06-14T06:04:28.131Z,88.23
2017-06-14T06:05:28.064Z,87.96
2017-06-14T06:06:28.038Z,88.65
2017-06-14T06:07:28.127Z,86.04
2017-06-14T06:08:28.049Z,86.54
2017-06-14T06:09:28.046Z,86.04
2017-06-14T06:10:28.112Z,86.44
2017-06-14T06:11:28.107Z,85.35
2017-06-14T06:12:28.134Z,86.01
2017-06-14T06:13:28.131Z,84.68
2017-06-14T06:14:28.113Z,84.15
2017-06-14T06:15:28.044Z,84.42
2017-06-14T06:16:28.038Z,86.33
2017-06-14T06:17:28.040Z,84.36
2017-06-14T06:18:28.039Z,84.07
2017-06-14T06:19:28.124Z,84.63
2017-06-14T06:20:28.026Z,85.16
2017-06-14T06:21:28.048Z,82.90
2017-06-14T06:22:28.088Z,80.52
2017-06-14T06:23:28.025Z,81.21
2017-06-14T06:24:28.038Z,81.08
2017-06-14T06:25:28.109Z,80.76
2017-06-14T06:26:28.109Z,78.81
2017-06-14T06:27:28.110Z,79.47
2017-06-14T06:28:28.111Z,78.81
2017-06-14T06:29:28.109Z,78.09
2017-06-14T06:30:28.112Z,82.00
2017-06-14T06:31:28.112Z,77.81
2017-06-14T06:32:28.216Z,81.48
2017-06-14T06:33:28.114Z,77.65
2017-06-14T06:34:28.112Z,76.02
2017-06-14T06:35:28.115Z,76.97
2017-06-14T06:36:28.145Z,77.25
2017-06-14T06:37:28.059Z,78.97
2017-06-14T06:38:28.069Z,75.78
2017-06-14T06:39:28.064Z,75.92
2017-06-14T06:40:28.064Z,75.26
2017-06-14T06:41:28.072Z,74.11
2017-06-14T06:42:28.066Z,74.08
2017-06-14T06:43:28.060Z,74.99
2017-06-14T06:44:28.156Z,72.07
2017-06-14T06:45:28.159Z,71.75
2017-06-14T06:46:28.102Z,70.37
2017-06-14T06:47:28.156Z,73.06
2017-06-14T06:48:28.095Z,70.60
2017-06-14T06:49:28.130Z,69.85
2017-06-14T06:50:28.112Z,70.76
2017-06-14T06:51:28.117Z,71.00
2017-06-14T06:52:28.153Z,70.17
2017-06-14T06:53:28.076Z,68.45
2017-06-14T06:54:28.071Z,69.75
2017-06-14T06:55:28.139Z,68.32
2017-06-14T06:56:28.072Z,67.44
2017-06-14T06:57:28.151Z,68.29
2017-06-14T06:58:28.167Z,68.91
2017-06-14T06:59:28.071Z,70.95
2017-06-14T07:00:28.119Z,68.08
2017-06-14T07:01:28.151Z,68.84
2017-06-14T07:02:28.152Z,68.37
2017-06-14T07:03:28.067Z,67.31
2017-06-14T07:04:28.070Z,67.10
2017-06-14T07:05:28.073Z,67.41
2017-06-14T07:06:28.118Z,67.91
2017-06-14T07:07:28.138Z,68.40
2017-06-14T07:08:28.160Z,69.49
2017-06-14T07:09:28.165Z,67.31
2017-06-14T07:10:28.170Z,67.05
2017-06-14T07:11:28.127Z,66.87
2017-06-14T07:12:28.169Z,68.24
2017-06-14T07:13:28.124Z,67.28
2017-06-14T07:14:28.145Z,65.18
2017-06-14T07:15:28.172Z,65.81
2017-06-14T07:16:28.166Z,65.73
2017-06-14T07:17:28.082Z,65.70
2017-06-14T07:18:28.162Z,62.99
2017-06-14T07:19:28.087Z,62.46
2017-06-14T07:20:28.133Z,62.79
2017-06-14T07:21:28.174Z,62.84
2017-06-14T07:22:28.084Z,63.38
2017-06-14T07:23:28.151Z,63.87
2017-06-14T07:24:28.136Z,63.74
2017-06-14T07:25:28.096Z,67.41
2017-06-14T07:26:28.087Z,65.91
2017-06-14T07:27:28.175Z,66.56
2017-06-14T07:28:28.086Z,68.79
2017-06-14T07:29:28.134Z,66.20
2017-06-14T07:30:28.169Z,67.36
2017-06-14T07:31:28.084Z,65.58
2017-06-14T07:32:28.169Z,66.22
2017-06-14T07:33:28.192Z,66.61
2017-06-14T07:34:28.177Z,66.14
2017-06-14T07:35:28.180Z,66.35
2017-06-14T07:36:28.181Z,64.88
2017-06-14T07:37:28.097Z,64.57
2017-06-14T07:38:28.178Z,64.15
2017-06-14T07:39:28.090Z,66.48
2017-06-14T07:40:28.140Z,62.77
2017-06-14T07:41:28.174Z,64.70
2017-06-14T07:42:28.287Z,64.57
2017-06-14T07:43:28.186Z,64.70
2017-06-14T07:44:28.095Z,63.13
2017-06-14T07:45:28.176Z,64.67
2017-06-14T07:46:28.097Z,64.05
2017-06-14T07:47:28.179Z,63.18
2017-06-14T07:48:28.183Z,64.80
2017-06-14T07:49:28.193Z,64.18
2017-06-14T07:50:28.186Z,63.35
2017-06-14T07:51:28.106Z,64.31
2017-06-14T07:52:28.198Z,63.82
2017-06-14T07:53:28.177Z,62.53
2017-06-14T07:54:28.289Z,62.56
2017-06-14T07:55:28.192Z,62.30
2017-06-14T07:56:28.108Z,65.62
2017-06-14T07:57:28.191Z,62.46
2017-06-14T07:58:28.097Z,64.78
2017-06-14T07:59:28.193Z,69.38
2017-06-14T08:00:28.249Z,64.44
2017-06-14T08:01:28.188Z,63.54
2017-06-14T08:02:28.157Z,68.24
2017-06-14T08:03:28.171Z,61.61
2017-06-14T08:04:28.193Z,60.22
2017-06-14T08:05:28.188Z,62.56
2017-06-14T08:06:28.110Z,58.76
2017-06-14T08:07:28.157Z,61.02
2017-06-14T08:08:28.113Z,60.22
2017-06-14T08:09:28.196Z,57.82
2017-06-14T08:10:28.200Z,59.78
2017-06-14T08:11:28.174Z,60.61
2017-06-14T08:12:28.193Z,64.65
2017-06-14T08:13:28.176Z,61.69
2017-06-14T08:14:28.108Z,61.35
2017-06-14T08:15:28.117Z,56.72
2017-06-14T08:16:28.201Z,57.28
2017-06-14T08:17:28.111Z,58.64
2017-06-14T08:18:28.205Z,61.84
2017-06-14T08:19:28.207Z,60.01
2017-06-14T08:20:28.158Z,61.20
2017-06-14T08:21:28.191Z,59.04
2017-06-14T08:22:28.203Z,59.92
2017-06-14T08:23:28.176Z,59.45
2017-06-14T08:24:28.202Z,63.51
2017-06-14T08:25:28.198Z,62.71
2017-06-14T08:26:28.199Z,59.12
2017-06-14T08:27:28.180Z,59.58
2017-06-14T08:28:28.198Z,56.31
2017-06-14T08:29:28.241Z,60.35
2017-06-14T08:30:28.206Z,60.27
2017-06-14T08:31:28.158Z,56.03
2017-06-14T08:32:28.212Z,57.05
2017-06-14T08:33:28.171Z,54.83
2017-06-14T08:34:28.207Z,58.66
2017-06-14T08:35:28.202Z,54.86
2017-06-14T08:36:28.115Z,55.32
2017-06-14T08:37:28.114Z,56.21
2017-06-14T08:38:28.107Z,57.74
2017-06-14T08:39:28.136Z,55.91
2017-06-14T08:40:28.118Z,56.72
2017-06-14T08:41:28.110Z,55.35
2017-06-14T08:42:28.160Z,51.33
2017-06-14T08:43:28.172Z,54.33
2017-06-14T08:44:28.116Z,53.67
2017-06-14T08:45:28.102Z,53.67
2017-06-14T08:46:28.206Z,58.35
2017-06-14T08:47:28.130Z,55.35
2017-06-14T08:48:28.212Z,53.36
2017-06-14T08:49:28.216Z,55.83
2017-06-14T08:50:28.150Z,56.67
2017-06-14T08:51:28.137Z,56.11
2017-06-14T08:52:28.227Z,52.88
2017-06-14T08:53:28.220Z,58.10
2017-06-14T08:54:28.138Z,54.91
2017-06-14T08:55:28.226Z,58.53
2017-06-14T08:56:28.291Z,57.10
2017-06-14T08:57:28.191Z,50.55
2017-06-14T08:58:28.191Z,52.12
2017-06-14T08:59:28.192Z,52.35
2017-06-14T09:00:28.294Z,53.42
2017-06-14T09:01:28.195Z,53.11
2017-06-14T09:02:28.195Z,53.79
2017-06-14T09:03:28.193Z,55.37
2017-06-14T09:04:28.197Z,48.81
2017-06-14T09:05:28.197Z,49.12
2017-06-14T09:06:28.132Z,49.75
2017-06-14T09:07:28.209Z,52.43
2017-06-14T09:08:28.209Z,51.62
2017-06-14T09:09:28.209Z,55.70
2017-06-14T09:10:28.210Z,50.83
2017-06-14T09:11:28.210Z,51.54
2017-06-14T09:12:28.211Z,51.33
2017-06-14T09:13:28.210Z,47.13
2017-06-14T09:14:28.216Z,47.83
2017-06-14T09:15:28.211Z,42.95
2017-06-14T09:16:28.215Z,44.95
2017-06-14T09:17:28.211Z,48.23
2017-06-14T09:18:28.214Z,47.51
2017-06-14T09:19:28.214Z,49.57
2017-06-14T09:20:28.217Z,51.37
2017-06-14T09:21:28.213Z,47.88
2017-06-14T09:22:28.221Z,49.02
2017-06-14T09:23:28.215Z,46.35
2017-06-14T09:24:28.220Z,47.68
2017-06-14T09:25:28.217Z,46.00
2017-06-14T09:26:28.218Z,46.81
2017-06-14T09:27:28.218Z,50.53
2017-06-14T09:28:28.218Z,49.67
2017-06-14T09:29:28.220Z,51.29
2017-06-14T09:30:28.217Z,51.21
2017-06-14T09:31:28.221Z,50.13
2017-06-14T09:32:28.221Z,53.82
2017-06-14T09:33:28.222Z,53.09
2017-06-14T09:34:28.221Z,51.24
2017-06-14T09:35:28.224Z,51.64
2017-06-14T09:36:28.240Z,52.37
2017-06-14T09:37:28.154Z,52.93
2017-06-14T09:38:28.250Z,52.04
2017-06-14T09:39:28.160Z,50.48
2017-06-14T09:40:28.160Z,54.23
2017-06-14T09:41:28.161Z,54.04
2017-06-14T09:42:28.224Z,49.92
2017-06-14T09:43:28.250Z,48.72
2017-06-14T09:44:28.162Z,49.09
2017-06-14T09:45:28.222Z,47.20
2017-06-14T09:46:28.227Z,48.86
2017-06-14T09:47:28.229Z,47.48
2017-06-14T09:48:28.228Z,47.65
2017-06-14T09:49:28.231Z,50.50
2017-06-14T09:50:28.230Z,47.36
2017-06-14T09:51:28.232Z,47.73
2017-06-14T09:52:28.229Z,43.72
2017-06-14T09:53:28.235Z,45.30
2017-06-14T09:54:28.231Z,42.65
2017-06-14T09:55:28.234Z,44.10
2017-06-14T09:56:28.169Z,48.03
2017-06-14T09:57:28.255Z,47.63
2017-06-14T09:58:28.245Z,48.08
2017-06-14T09:59:28.169Z,46.95
2017-06-14T10:00:28.255Z,47.68
2017-06-14T10:01:28.213Z,53.84
2017-06-14T10:02:28.255Z,43.92
2017-06-14T10:03:28.253Z,45.05
2017-06-14T10:04:28.255Z,45.50
2017-06-14T10:05:28.258Z,44.87
2017-06-14T10:06:28.257Z,48.97
2017-06-14T10:07:28.172Z,46.35
2017-06-14T10:08:28.173Z,46.68
2017-06-14T10:09:28.180Z,47.51
2017-06-14T10:10:28.258Z,46.68
2017-06-14T10:11:28.260Z,44.52
2017-06-14T10:12:28.223Z,46.05
2017-06-14T10:13:28.179Z,47.28
2017-06-14T10:14:28.267Z,41.70
2017-06-14T10:15:28.269Z,41.15
2017-06-14T10:16:28.159Z,43.60
2017-06-14T10:17:28.242Z,47.98
2017-06-14T10:18:28.249Z,45.52
2017-06-14T10:19:28.249Z,44.95
2017-06-14T10:20:28.251Z,45.60
2017-06-14T10:21:28.246Z,44.77
2017-06-14T10:22:28.263Z,44.50
2017-06-14T10:23:28.249Z,42.72
2017-06-14T10:24:28.253Z,42.33
2017-06-14T10:25:28.247Z,38.18
2017-06-14T10:26:28.191Z,39.74
2017-06-14T10:27:28.191Z,43.33
2017-06-14T10:28:28.188Z,52.70
2017-06-14T10:29:28.183Z,49.64
2017-06-14T10:30:28.231Z,49.49
2017-06-14T10:31:28.195Z,41.13
2017-06-14T10:32:28.190Z,42.28
2017-06-14T10:33:28.186Z,42.03
2017-06-14T10:34:28.273Z,48.72
2017-06-14T10:35:28.191Z,52.35
2017-06-14T10:36:28.270Z,46.20
2017-06-14T10:37:28.254Z,41.23
2017-06-14T10:38:28.189Z,39.44
2017-06-14T10:39:28.194Z,41.28
2017-06-14T10:40:28.278Z,44.68
2017-06-14T10:41:28.278Z,46.43
2017-06-14T10:42:28.278Z,49.77
2017-06-14T10:43:28.279Z,41.98
2017-06-14T10:44:28.286Z,43.27
2017-06-14T10:45:28.274Z,47.10
2017-06-14T10:46:28.239Z,43.02
2017-06-14T10:47:28.276Z,48.48
2017-06-14T10:48:28.195Z,41.35
2017-06-14T10:49:28.281Z,47.45
2017-06-14T10:50:28.288Z,46.30
2017-06-14T10:51:28.283Z,40.26
2017-06-14T10:52:28.290Z,42.65
2017-06-14T10:53:28.195Z,41.10
2017-06-14T10:54:28.265Z,43.55
2017-06-14T10:55:28.203Z,42.15
2017-06-14T10:56:28.288Z,44.15
2017-06-14T10:57:28.277Z,44.95
2017-06-14T10:58:28.281Z,41.23
2017-06-14T10:59:28.231Z,41.95
2017-06-14T11:00:28.261Z,44.82
2017-06-14T11:01:28.288Z,39.40
2017-06-14T11:02:28.284Z,38.40
2017-06-14T11:03:28.290Z,41.33
2017-06-14T11:04:28.209Z,39.87
2017-06-14T11:05:28.342Z,39.19
2017-06-14T11:06:28.201Z,42.15
2017-06-14T11:07:28.207Z,41.58
2017-06-14T11:08:28.272Z,42.70
2017-06-14T11:09:28.274Z,47.06
2017-06-14T11:10:28.276Z,47.08
2017-06-14T11:11:28.280Z,49.57
2017-06-14T11:12:28.277Z,43.40
2017-06-14T11:13:28.276Z,41.50
2017-06-14T11:14:28.234Z,38.80
2017-06-14T11:15:28.276Z,42.80
2017-06-14T11:16:28.279Z,41.56
2017-06-14T11:17:28.279Z,38.80
2017-06-14T11:18:28.282Z,42.72
2017-06-14T11:19:28.277Z,37.71
2017-06-14T11:20:28.284Z,38.50
2017-06-14T11:21:28.369Z,42.25
2017-06-14T11:22:28.282Z,40.29
2017-06-14T11:23:28.281Z,42.10
2017-06-14T11:24:28.285Z,39.57
2017-06-14T11:25:28.281Z,46.12
2017-06-14T11:26:28.205Z,37.44
2017-06-14T11:27:28.309Z,36.45
2017-06-14T11:28:28.302Z,34.97
2017-06-14T11:30:28.307Z,33.42
2017-06-14T11:31:28.271Z,36.80
2017-06-14T11:32:28.356Z,34.35
2017-06-14T11:33:28.227Z,42.08
2017-06-14T11:34:28.263Z,37.41
2017-06-14T11:35:28.283Z,36.67
2017-06-14T11:36:28.304Z,39.22
2017-06-14T11:37:28.214Z,39.27
2017-06-14T11:38:28.288Z,38.70
2017-06-14T11:39:28.304Z,39.84
2017-06-14T11:40:28.268Z,40.73
2017-06-14T11:41:28.311Z,41.75
2017-06-14T11:42:28.229Z,38.65
2017-06-14T11:43:28.228Z,40.36
2017-06-14T11:44:28.316Z,38.57
2017-06-14T11:45:28.228Z,37.11
2017-06-14T11:46:28.315Z,38.43
2017-06-14T11:47:28.218Z,36.62
2017-06-14T11:48:28.318Z,41.93
2017-06-14T11:49:28.395Z,48.23
2017-06-14T11:50:28.316Z,42.58
2017-06-14T11:51:28.233Z,39.27
2017-06-14T11:52:28.235Z,37.83
2017-06-14T11:53:28.230Z,42.03
2017-06-14T11:54:28.276Z,38.45
2017-06-14T11:55:28.232Z,44.90
2017-06-14T11:56:28.311Z,38.72
2017-06-14T11:57:28.301Z,36.52
2017-06-14T11:58:28.301Z,37.14
2017-06-14T11:59:28.300Z,36.80
2017-06-14T12:00:28.300Z,35.29
2017-06-14T12:01:28.303Z,37.66
2017-06-14T12:02:28.301Z,36.47
2017-06-14T12:03:28.303Z,37.24
2017-06-14T12:04:28.303Z,40.78
2017-06-14T12:05:28.303Z,37.96
2017-06-14T12:06:28.219Z,34.75
2017-06-14T12:07:28.240Z,35.51
2017-06-14T12:08:28.241Z,35.54
2017-06-14T12:09:28.239Z,37.96
2017-06-14T12:10:28.327Z,37.74
2017-06-14T12:11:28.335Z,35.90
2017-06-14T12:12:28.239Z,36.33
2017-06-14T12:13:28.243Z,38.00
2017-06-14T12:14:28.252Z,36.18
2017-06-14T12:15:28.329Z,39.82
2017-06-14T12:16:28.286Z,37.11
2017-06-14T12:17:28.308Z,39.02
2017-06-14T12:18:28.318Z,37.56
2017-06-14T12:19:28.313Z,39.52
2017-06-14T12:20:28.316Z,38.43
2017-06-14T12:21:28.317Z,37.04
2017-06-14T12:22:28.418Z,37.06
2017-06-14T12:23:28.314Z,39.19
2017-06-14T12:24:28.316Z,37.88
2017-06-14T12:25:28.315Z,39.84
2017-06-14T12:26:28.321Z,37.81
2017-06-14T12:27:28.313Z,37.81
2017-06-14T12:28:28.259Z,37.93
2017-06-14T12:29:28.294Z,38.55
2017-06-14T12:30:28.259Z,41.33
2017-06-14T12:31:28.339Z,40.21
2017-06-14T12:32:28.345Z,42.55
2017-06-14T12:33:28.254Z,36.75
2017-06-14T12:34:28.259Z,39.59
2017-06-14T12:35:28.297Z,38.35
2017-06-14T12:36:28.254Z,36.84
2017-06-14T12:37:28.321Z,35.51
2017-06-14T12:38:28.319Z,36.47
2017-06-14T12:39:28.239Z,36.08
2017-06-14T12:40:28.324Z,37.83
2017-06-14T12:41:28.324Z,38.82
2017-06-14T12:42:28.324Z,36.87
2017-06-14T12:43:28.328Z,35.66
2017-06-14T12:44:28.323Z,38.68
2017-06-14T12:45:28.340Z,37.46
2017-06-14T12:46:28.327Z,37.71
2017-06-14T12:47:28.255Z,38.94
2017-06-14T12:48:28.346Z,38.75
2017-06-14T12:49:28.307Z,40.09
2017-06-14T12:50:28.349Z,37.04
2017-06-14T12:51:28.267Z,35.76
2017-06-14T12:52:28.349Z,36.33
2017-06-14T12:53:28.328Z,37.63